sensor_id;sensor_type;location;lat;lon;timestamp;temperature;humidity
21759;DHT22;11041;50.854;20.580;2022-12-07T00:01:37;2.00;99.90
21759;DHT22;11041;50.854;20.580;2022-12-07T00:04:08;1.90;99.90
21759;DHT22;11041;50.854;20.580;2022-12-07T00:06:43;1.60;99.90
21759;DHT22;11041;50.854;20.580;2022-12-07T00:09:14;1.90;99.90
21759;DHT22;11041;50.854;20.580;2022-12-07T00:11:42;1.90;99.90
21759;DHT22;11041;50.854;20.580;2022-12-07T00:14:13;1.90;99.90
21759;DHT22;11041;50.854;20.580;2022-12-07T00:16:40;2.10;99.90
21759;DHT22;11041;50.854;20.580;2022-12-07T00:19:09;2.00;99.90
21759;DHT22;11041;50.854;20.580;2022-12-07T00:21:37;2.10;99.90
21759;DHT22;11041;50.854;20.580;2022-12-07T00:24:05;1.90;99.90
21759;DHT22;11041;50.854;20.580;2022-12-07T00:26:34;1.90;99.90
21759;DHT22;11041;50.854;20.580;2022-12-07T00:29:17;1.90;99.90
21759;DHT22;11041;50.854;20.580;2022-12-07T00:31:45;2.10;99.90
21759;DHT22;11041;50.854;20.580;2022-12-07T00:34:18;1.90;99.90
21759;DHT22;11041;50.854;20.580;2022-12-07T00:36:46;1.90;99.90
21759;DHT22;11041;50.854;20.580;2022-12-07T00:39:13;2.10;99.90
21759;DHT22;11041;50.854;20.580;2022-12-07T00:41:40;2.10;99.90
21759;DHT22;11041;50.854;20.580;2022-12-07T00:44:07;1.80;99.90
21759;DHT22;11041;50.854;20.580;2022-12-07T00:46:33;1.90;99.90
21759;DHT22;11041;50.854;20.580;2022-12-07T00:49:00;2.00;99.90
21759;DHT22;11041;50.854;20.580;2022-12-07T00:51:27;1.90;99.90
21759;DHT22;11041;50.854;20.580;2022-12-07T00:53:54;1.90;99.90
21759;DHT22;11041;50.854;20.580;2022-12-07T00:56:23;2.00;99.90
21759;DHT22;11041;50.854;20.580;2022-12-07T00:58:59;2.50;99.90
21759;DHT22;11041;50.854;20.580;2022-12-07T01:01:29;1.90;99.90
21759;DHT22;11041;50.854;20.580;2022-12-07T01:03:58;1.90;99.90
21759;DHT22;11041;50.854;20.580;2022-12-07T01:06:28;2.00;99.90
21759;DHT22;11041;50.854;20.580;2022-12-07T01:08:55;2.20;99.90
21759;DHT22;11041;50.854;20.580;2022-12-07T01:11:26;1.90;99.90
21759;DHT22;11041;50.854;20.580;2022-12-07T01:13:55;2.20;99.90
21759;DHT22;11041;50.854;20.580;2022-12-07T01:16:25;2.20;99.90
21759;DHT22;11041;50.854;20.580;2022-12-07T01:18:55;2.00;99.90
21759;DHT22;11041;50.854;20.580;2022-12-07T01:21:30;2.00;99.90
21759;DHT22;11041;50.854;20.580;2022-12-07T01:24:02;2.10;99.90
21759;DHT22;11041;50.854;20.580;2022-12-07T01:26:34;2.00;99.90
21759;DHT22;11041;50.854;20.580;2022-12-07T01:29:00;1.90;99.90
21759;DHT22;11041;50.854;20.580;2022-12-07T01:31:28;2.00;99.90
21759;DHT22;11041;50.854;20.580;2022-12-07T01:33:57;2.00;99.90
21759;DHT22;11041;50.854;20.580;2022-12-07T01:36:30;2.00;99.90
21759;DHT22;11041;50.854;20.580;2022-12-07T01:39:01;1.90;99.90
21759;DHT22;11041;50.854;20.580;2022-12-07T01:41:32;2.00;99.90
21759;DHT22;11041;50.854;20.580;2022-12-07T01:46:57;1.90;99.90
21759;DHT22;11041;50.854;20.580;2022-12-07T01:49:43;1.90;99.90
21759;DHT22;11041;50.854;20.580;2022-12-07T01:52:18;2.40;99.90
21759;DHT22;11041;50.854;20.580;2022-12-07T01:54:53;1.80;99.90
21759;DHT22;11041;50.854;20.580;2022-12-07T01:57:23;1.90;99.90
21759;DHT22;11041;50.854;20.580;2022-12-07T01:59:52;1.90;99.90
21759;DHT22;11041;50.854;20.580;2022-12-07T02:02:38;1.90;99.90
21759;DHT22;11041;50.854;20.580;2022-12-07T02:05:10;1.90;99.90
21759;DHT22;11041;50.854;20.580;2022-12-07T02:07:39;2.00;99.90
21759;DHT22;11041;50.854;20.580;2022-12-07T02:10:21;1.70;99.90
21759;DHT22;11041;50.854;20.580;2022-12-07T02:13:05;2.10;99.90
21759;DHT22;11041;50.854;20.580;2022-12-07T02:40:50;2.00;99.90
21759;DHT22;11041;50.854;20.580;2022-12-07T02:43:25;1.90;99.90
21759;DHT22;11041;50.854;20.580;2022-12-07T02:46:08;1.60;99.90
21759;DHT22;11041;50.854;20.580;2022-12-07T02:48:40;2.10;99.90
21759;DHT22;11041;50.854;20.580;2022-12-07T02:51:09;2.00;99.90
21759;DHT22;11041;50.854;20.580;2022-12-07T02:53:38;2.00;99.90
21759;DHT22;11041;50.854;20.580;2022-12-07T03:00:20;2.00;99.90
21759;DHT22;11041;50.854;20.580;2022-12-07T03:03:04;2.10;99.90
21759;DHT22;11041;50.854;20.580;2022-12-07T03:05:49;1.90;99.90
21759;DHT22;11041;50.854;20.580;2022-12-07T03:11:51;1.90;99.90
21759;DHT22;11041;50.854;20.580;2022-12-07T03:14:31;1.90;99.90
21759;DHT22;11041;50.854;20.580;2022-12-07T03:17:14;2.10;99.90
21759;DHT22;11041;50.854;20.580;2022-12-07T03:19:46;1.80;99.90
21759;DHT22;11041;50.854;20.580;2022-12-07T03:22:18;2.00;99.90
21759;DHT22;11041;50.854;20.580;2022-12-07T03:24:52;2.00;99.90
21759;DHT22;11041;50.854;20.580;2022-12-07T03:27:29;1.90;99.90
21759;DHT22;11041;50.854;20.580;2022-12-07T03:30:17;2.00;99.90
21759;DHT22;11041;50.854;20.580;2022-12-07T03:32:50;1.90;99.90
21759;DHT22;11041;50.854;20.580;2022-12-07T03:35:34;2.10;99.90
21759;DHT22;11041;50.854;20.580;2022-12-07T03:38:36;1.80;99.90
21759;DHT22;11041;50.854;20.580;2022-12-07T03:41:12;2.10;99.90
21759;DHT22;11041;50.854;20.580;2022-12-07T03:43:45;1.80;99.90
21759;DHT22;11041;50.854;20.580;2022-12-07T03:46:40;2.00;99.90
21759;DHT22;11041;50.854;20.580;2022-12-07T03:49:23;1.90;99.90
21759;DHT22;11041;50.854;20.580;2022-12-07T03:54:34;1.90;99.90
21759;DHT22;11041;50.854;20.580;2022-12-07T03:57:06;2.00;99.90
21759;DHT22;11041;50.854;20.580;2022-12-07T03:59:36;1.90;99.90
21759;DHT22;11041;50.854;20.580;2022-12-07T04:02:07;1.90;99.90
21759;DHT22;11041;50.854;20.580;2022-12-07T04:04:34;2.00;99.90
21759;DHT22;11041;50.854;20.580;2022-12-07T04:07:01;1.90;99.90
21759;DHT22;11041;50.854;20.580;2022-12-07T04:09:28;1.80;99.90
21759;DHT22;11041;50.854;20.580;2022-12-07T04:11:54;2.10;99.90
21759;DHT22;11041;50.854;20.580;2022-12-07T04:14:21;2.00;99.90
21759;DHT22;11041;50.854;20.580;2022-12-07T04:16:54;1.90;99.90
21759;DHT22;11041;50.854;20.580;2022-12-07T04:19:29;2.00;99.90
21759;DHT22;11041;50.854;20.580;2022-12-07T04:22:00;1.90;99.90
21759;DHT22;11041;50.854;20.580;2022-12-07T04:24:28;1.60;99.90
21759;DHT22;11041;50.854;20.580;2022-12-07T04:26:55;1.90;99.90
21759;DHT22;11041;50.854;20.580;2022-12-07T04:29:23;1.90;99.90
21759;DHT22;11041;50.854;20.580;2022-12-07T04:31:50;2.10;99.90
21759;DHT22;11041;50.854;20.580;2022-12-07T04:34:17;1.90;99.90
21759;DHT22;11041;50.854;20.580;2022-12-07T04:36:46;2.00;99.90
21759;DHT22;11041;50.854;20.580;2022-12-07T04:39:28;1.90;99.90
21759;DHT22;11041;50.854;20.580;2022-12-07T04:41:56;2.00;99.90
21759;DHT22;11041;50.854;20.580;2022-12-07T04:44:25;1.90;99.90
21759;DHT22;11041;50.854;20.580;2022-12-07T04:46:53;1.90;99.90
21759;DHT22;11041;50.854;20.580;2022-12-07T04:49:21;2.20;99.90
21759;DHT22;11041;50.854;20.580;2022-12-07T04:51:48;1.90;99.90
21759;DHT22;11041;50.854;20.580;2022-12-07T04:54:15;1.70;99.90
21759;DHT22;11041;50.854;20.580;2022-12-07T04:56:43;1.90;99.90
21759;DHT22;11041;50.854;20.580;2022-12-07T04:59:11;1.80;99.90
21759;DHT22;11041;50.854;20.580;2022-12-07T05:01:39;1.90;99.90
21759;DHT22;11041;50.854;20.580;2022-12-07T05:04:06;1.90;99.90
21759;DHT22;11041;50.854;20.580;2022-12-07T05:06:32;1.90;99.90
21759;DHT22;11041;50.854;20.580;2022-12-07T05:08:59;1.90;99.90
21759;DHT22;11041;50.854;20.580;2022-12-07T05:11:26;2.00;99.90
21759;DHT22;11041;50.854;20.580;2022-12-07T05:14:16;1.90;99.90
21759;DHT22;11041;50.854;20.580;2022-12-07T05:16:46;2.00;99.90
21759;DHT22;11041;50.854;20.580;2022-12-07T05:19:14;1.60;99.90
21759;DHT22;11041;50.854;20.580;2022-12-07T05:21:41;2.00;99.90
21759;DHT22;11041;50.854;20.580;2022-12-07T05:24:10;1.90;99.90
21759;DHT22;11041;50.854;20.580;2022-12-07T05:26:39;2.00;99.90
21759;DHT22;11041;50.854;20.580;2022-12-07T05:29:05;2.30;99.90
21759;DHT22;11041;50.854;20.580;2022-12-07T05:31:32;1.80;99.90
21759;DHT22;11041;50.854;20.580;2022-12-07T05:34:00;2.00;99.90
21759;DHT22;11041;50.854;20.580;2022-12-07T05:36:26;1.70;99.90
21759;DHT22;11041;50.854;20.580;2022-12-07T05:38:54;1.80;99.90
21759;DHT22;11041;50.854;20.580;2022-12-07T05:41:21;1.90;99.90
21759;DHT22;11041;50.854;20.580;2022-12-07T05:44:07;2.00;99.90
21759;DHT22;11041;50.854;20.580;2022-12-07T05:46:34;1.80;99.90
21759;DHT22;11041;50.854;20.580;2022-12-07T05:49:01;1.60;99.90
21759;DHT22;11041;50.854;20.580;2022-12-07T05:51:28;1.90;99.90
21759;DHT22;11041;50.854;20.580;2022-12-07T05:53:55;1.80;99.90
21759;DHT22;11041;50.854;20.580;2022-12-07T05:58:48;2.10;99.90
21759;DHT22;11041;50.854;20.580;2022-12-07T06:04:01;1.70;99.90
21759;DHT22;11041;50.854;20.580;2022-12-07T06:06:27;1.80;99.90
21759;DHT22;11041;50.854;20.580;2022-12-07T06:08:54;1.80;99.90
21759;DHT22;11041;50.854;20.580;2022-12-07T06:11:20;1.80;99.90
21759;DHT22;11041;50.854;20.580;2022-12-07T06:14:05;1.70;99.90
21759;DHT22;11041;50.854;20.580;2022-12-07T06:16:32;1.80;99.90
21759;DHT22;11041;50.854;20.580;2022-12-07T06:18:58;1.80;99.90
21759;DHT22;11041;50.854;20.580;2022-12-07T06:23:53;1.80;99.90
21759;DHT22;11041;50.854;20.580;2022-12-07T06:26:20;1.80;99.90
21759;DHT22;11041;50.854;20.580;2022-12-07T06:28:47;2.00;99.90
21759;DHT22;11041;50.854;20.580;2022-12-07T06:31:14;2.00;99.90
21759;DHT22;11041;50.854;20.580;2022-12-07T06:33:41;2.00;99.90
21759;DHT22;11041;50.854;20.580;2022-12-07T06:36:09;1.70;99.90
21759;DHT22;11041;50.854;20.580;2022-12-07T06:38:36;2.00;99.90
21759;DHT22;11041;50.854;20.580;2022-12-07T06:41:03;1.70;99.90
21759;DHT22;11041;50.854;20.580;2022-12-07T06:43:30;1.80;99.90
21759;DHT22;11041;50.854;20.580;2022-12-07T06:45:57;2.00;99.90
21759;DHT22;11041;50.854;20.580;2022-12-07T06:50:50;1.80;99.90
21759;DHT22;11041;50.854;20.580;2022-12-07T06:53:16;1.70;99.90
21759;DHT22;11041;50.854;20.580;2022-12-07T06:55:43;1.90;99.90
21759;DHT22;11041;50.854;20.580;2022-12-07T06:58:09;1.80;99.90
21759;DHT22;11041;50.854;20.580;2022-12-07T07:00:36;1.90;99.90
21759;DHT22;11041;50.854;20.580;2022-12-07T07:03:02;1.90;99.90
21759;DHT22;11041;50.854;20.580;2022-12-07T07:05:29;1.70;99.90
21759;DHT22;11041;50.854;20.580;2022-12-07T07:07:56;2.00;99.90
21759;DHT22;11041;50.854;20.580;2022-12-07T07:12:49;1.90;99.90
21759;DHT22;11041;50.854;20.580;2022-12-07T07:15:16;2.00;99.90
21759;DHT22;11041;50.854;20.580;2022-12-07T07:17:43;1.90;99.90
21759;DHT22;11041;50.854;20.580;2022-12-07T07:20:10;2.00;99.90
21759;DHT22;11041;50.854;20.580;2022-12-07T07:22:37;2.10;99.90
21759;DHT22;11041;50.854;20.580;2022-12-07T07:25:04;1.80;99.90
21759;DHT22;11041;50.854;20.580;2022-12-07T07:27:31;2.00;99.90
21759;DHT22;11041;50.854;20.580;2022-12-07T07:29:58;1.90;99.90
21759;DHT22;11041;50.854;20.580;2022-12-07T07:32:24;1.90;99.90
21759;DHT22;11041;50.854;20.580;2022-12-07T07:34:51;1.90;99.90
21759;DHT22;11041;50.854;20.580;2022-12-07T07:37:18;2.00;99.90
21759;DHT22;11041;50.854;20.580;2022-12-07T07:39:44;2.00;99.90
21759;DHT22;11041;50.854;20.580;2022-12-07T07:42:11;2.00;99.90
21759;DHT22;11041;50.854;20.580;2022-12-07T07:44:38;2.20;99.90
21759;DHT22;11041;50.854;20.580;2022-12-07T07:47:04;2.10;99.90
21759;DHT22;11041;50.854;20.580;2022-12-07T07:49:31;2.20;99.90
21759;DHT22;11041;50.854;20.580;2022-12-07T07:51:57;2.20;99.90
21759;DHT22;11041;50.854;20.580;2022-12-07T07:54:24;2.00;99.90
21759;DHT22;11041;50.854;20.580;2022-12-07T07:56:50;1.90;99.90
21759;DHT22;11041;50.854;20.580;2022-12-07T07:59:18;2.20;99.90
21759;DHT22;11041;50.854;20.580;2022-12-07T08:01:45;2.10;99.90
21759;DHT22;11041;50.854;20.580;2022-12-07T08:04:11;2.20;99.90
21759;DHT22;11041;50.854;20.580;2022-12-07T08:09:04;2.10;99.90
21759;DHT22;11041;50.854;20.580;2022-12-07T08:11:32;2.10;99.90
21759;DHT22;11041;50.854;20.580;2022-12-07T08:13:59;2.10;99.90
21759;DHT22;11041;50.854;20.580;2022-12-07T08:16:26;2.20;99.90
21759;DHT22;11041;50.854;20.580;2022-12-07T08:18:52;2.10;99.90
21759;DHT22;11041;50.854;20.580;2022-12-07T08:23:46;2.10;99.90
21759;DHT22;11041;50.854;20.580;2022-12-07T08:26:15;2.10;99.90
21759;DHT22;11041;50.854;20.580;2022-12-07T08:28:42;2.10;99.90
21759;DHT22;11041;50.854;20.580;2022-12-07T08:31:16;2.00;99.90
21759;DHT22;11041;50.854;20.580;2022-12-07T08:33:46;2.30;99.90
21759;DHT22;11041;50.854;20.580;2022-12-07T08:36:14;2.30;99.90
21759;DHT22;11041;50.854;20.580;2022-12-07T08:38:42;2.20;99.90
21759;DHT22;11041;50.854;20.580;2022-12-07T08:41:09;2.30;99.90
21759;DHT22;11041;50.854;20.580;2022-12-07T08:43:35;2.20;99.90
21759;DHT22;11041;50.854;20.580;2022-12-07T08:48:51;2.00;99.90
21759;DHT22;11041;50.854;20.580;2022-12-07T08:51:22;2.10;99.90
21759;DHT22;11041;50.854;20.580;2022-12-07T08:53:51;2.20;99.90
21759;DHT22;11041;50.854;20.580;2022-12-07T08:56:19;2.00;99.90
21759;DHT22;11041;50.854;20.580;2022-12-07T08:58:46;2.40;99.90
21759;DHT22;11041;50.854;20.580;2022-12-07T09:01:12;2.10;99.90
21759;DHT22;11041;50.854;20.580;2022-12-07T09:03:38;2.10;99.90
21759;DHT22;11041;50.854;20.580;2022-12-07T09:06:06;2.20;99.90
21759;DHT22;11041;50.854;20.580;2022-12-07T09:08:37;2.20;99.90
21759;DHT22;11041;50.854;20.580;2022-12-07T09:11:08;2.20;99.90
21759;DHT22;11041;50.854;20.580;2022-12-07T09:13:35;2.20;99.90
21759;DHT22;11041;50.854;20.580;2022-12-07T09:16:02;2.30;99.90
21759;DHT22;11041;50.854;20.580;2022-12-07T09:18:29;2.00;99.90
21759;DHT22;11041;50.854;20.580;2022-12-07T09:20:56;2.00;99.90
21759;DHT22;11041;50.854;20.580;2022-12-07T09:23:23;2.10;99.90
21759;DHT22;11041;50.854;20.580;2022-12-07T09:25:50;2.10;99.90
21759;DHT22;11041;50.854;20.580;2022-12-07T09:28:16;2.00;99.90
21759;DHT22;11041;50.854;20.580;2022-12-07T09:30:47;2.10;99.90
21759;DHT22;11041;50.854;20.580;2022-12-07T09:33:15;2.10;99.90
21759;DHT22;11041;50.854;20.580;2022-12-07T09:35:46;2.00;99.90
21759;DHT22;11041;50.854;20.580;2022-12-07T09:38:17;2.00;99.90
21759;DHT22;11041;50.854;20.580;2022-12-07T09:40:46;2.10;99.90
21759;DHT22;11041;50.854;20.580;2022-12-07T09:43:19;2.10;99.90
21759;DHT22;11041;50.854;20.580;2022-12-07T09:45:51;2.10;99.90
21759;DHT22;11041;50.854;20.580;2022-12-07T09:48:36;2.40;99.90
21759;DHT22;11041;50.854;20.580;2022-12-07T09:51:16;2.30;99.90
21759;DHT22;11041;50.854;20.580;2022-12-07T09:53:47;2.30;99.90
21759;DHT22;11041;50.854;20.580;2022-12-07T09:56:17;2.10;99.90
21759;DHT22;11041;50.854;20.580;2022-12-07T09:58:46;2.20;99.90
21759;DHT22;11041;50.854;20.580;2022-12-07T10:01:19;1.90;99.90
21759;DHT22;11041;50.854;20.580;2022-12-07T10:03:59;2.50;99.90
21759;DHT22;11041;50.854;20.580;2022-12-07T10:06:32;1.90;99.90
21759;DHT22;11041;50.854;20.580;2022-12-07T10:08:59;2.20;99.90
21759;DHT22;11041;50.854;20.580;2022-12-07T10:11:25;2.40;99.90
21759;DHT22;11041;50.854;20.580;2022-12-07T10:13:52;2.30;99.90
21759;DHT22;11041;50.854;20.580;2022-12-07T10:16:39;2.40;99.90
21759;DHT22;11041;50.854;20.580;2022-12-07T10:19:31;2.40;99.90
21759;DHT22;11041;50.854;20.580;2022-12-07T10:22:17;2.30;99.90
21759;DHT22;11041;50.854;20.580;2022-12-07T10:24:46;2.30;99.90
21759;DHT22;11041;50.854;20.580;2022-12-07T10:27:31;1.90;99.90
21759;DHT22;11041;50.854;20.580;2022-12-07T10:29:59;2.40;99.90
21759;DHT22;11041;50.854;20.580;2022-12-07T10:32:33;2.40;99.90
21759;DHT22;11041;50.854;20.580;2022-12-07T10:35:28;2.40;99.90
21759;DHT22;11041;50.854;20.580;2022-12-07T10:37:58;2.40;99.90
21759;DHT22;11041;50.854;20.580;2022-12-07T10:43:22;2.50;99.90
21759;DHT22;11041;50.854;20.580;2022-12-07T10:58:18;2.40;99.90
21759;DHT22;11041;50.854;20.580;2022-12-07T11:07:10;2.60;99.90
21759;DHT22;11041;50.854;20.580;2022-12-07T11:10:07;2.60;99.90
21759;DHT22;11041;50.854;20.580;2022-12-07T11:13:02;2.60;99.90
21759;DHT22;11041;50.854;20.580;2022-12-07T11:16:16;2.70;99.90
21759;DHT22;11041;50.854;20.580;2022-12-07T11:18:52;2.70;99.90
21759;DHT22;11041;50.854;20.580;2022-12-07T11:27:48;2.80;99.90
21759;DHT22;11041;50.854;20.580;2022-12-07T11:31:01;2.70;99.90
21759;DHT22;11041;50.854;20.580;2022-12-07T11:37:25;2.70;99.90
21759;DHT22;11041;50.854;20.580;2022-12-07T11:43:27;2.60;99.90
21759;DHT22;11041;50.854;20.580;2022-12-07T11:49:02;2.60;99.90
21759;DHT22;11041;50.854;20.580;2022-12-07T11:51:40;2.60;99.90
21759;DHT22;11041;50.854;20.580;2022-12-07T11:54:16;2.60;99.90
21759;DHT22;11041;50.854;20.580;2022-12-07T11:56:48;2.60;99.90
21759;DHT22;11041;50.854;20.580;2022-12-07T11:59:27;2.60;99.90
21759;DHT22;11041;50.854;20.580;2022-12-07T12:02:16;2.60;99.90
21759;DHT22;11041;50.854;20.580;2022-12-07T12:04:58;2.60;99.90
21759;DHT22;11041;50.854;20.580;2022-12-07T12:07:36;2.70;99.90
21759;DHT22;11041;50.854;20.580;2022-12-07T12:10:32;2.70;99.90
21759;DHT22;11041;50.854;20.580;2022-12-07T12:16:09;2.70;99.90
21759;DHT22;11041;50.854;20.580;2022-12-07T12:21:57;2.70;99.90
21759;DHT22;11041;50.854;20.580;2022-12-07T12:24:32;2.70;99.90
21759;DHT22;11041;50.854;20.580;2022-12-07T12:27:15;2.70;99.90
21759;DHT22;11041;50.854;20.580;2022-12-07T12:29:57;2.70;99.90
21759;DHT22;11041;50.854;20.580;2022-12-07T12:32:41;2.70;99.90
21759;DHT22;11041;50.854;20.580;2022-12-07T12:35:30;2.70;99.90
21759;DHT22;11041;50.854;20.580;2022-12-07T12:38:24;2.70;99.90
21759;DHT22;11041;50.854;20.580;2022-12-07T12:40:55;2.70;99.90
21759;DHT22;11041;50.854;20.580;2022-12-07T12:43:45;2.70;99.90
21759;DHT22;11041;50.854;20.580;2022-12-07T12:46:38;2.70;99.90
21759;DHT22;11041;50.854;20.580;2022-12-07T12:57:35;2.80;99.90
21759;DHT22;11041;50.854;20.580;2022-12-07T13:00:21;2.70;99.90
21759;DHT22;11041;50.854;20.580;2022-12-07T13:02:53;2.70;99.90
21759;DHT22;11041;50.854;20.580;2022-12-07T13:05:23;2.70;99.90
21759;DHT22;11041;50.854;20.580;2022-12-07T13:07:57;2.70;99.90
21759;DHT22;11041;50.854;20.580;2022-12-07T13:16:36;2.80;99.90
21759;DHT22;11041;50.854;20.580;2022-12-07T13:18:42;2.80;99.90
21759;DHT22;11041;50.854;20.580;2022-12-07T13:23:39;2.80;99.90
21759;DHT22;11041;50.854;20.580;2022-12-07T13:29:18;2.80;99.90
21759;DHT22;11041;50.854;20.580;2022-12-07T13:31:51;2.80;99.90
21759;DHT22;11041;50.854;20.580;2022-12-07T13:34:36;2.70;99.90
21759;DHT22;11041;50.854;20.580;2022-12-07T13:37:12;2.80;99.90
21759;DHT22;11041;50.854;20.580;2022-12-07T13:39:51;2.80;99.90
21759;DHT22;11041;50.854;20.580;2022-12-07T13:42:28;2.80;99.90
21759;DHT22;11041;50.854;20.580;2022-12-07T13:44:58;2.80;99.90
21759;DHT22;11041;50.854;20.580;2022-12-07T13:50:27;2.90;99.90
21759;DHT22;11041;50.854;20.580;2022-12-07T13:53:00;2.80;99.90
21759;DHT22;11041;50.854;20.580;2022-12-07T13:55:28;2.90;99.90
21759;DHT22;11041;50.854;20.580;2022-12-07T13:57:56;2.90;99.90
21759;DHT22;11041;50.854;20.580;2022-12-07T14:00:25;2.80;99.90
21759;DHT22;11041;50.854;20.580;2022-12-07T14:06:17;2.80;99.90
21759;DHT22;11041;50.854;20.580;2022-12-07T14:08:47;2.80;99.90
21759;DHT22;11041;50.854;20.580;2022-12-07T14:11:17;2.80;99.90
21759;DHT22;11041;50.854;20.580;2022-12-07T14:14:04;2.80;99.90
21759;DHT22;11041;50.854;20.580;2022-12-07T14:16:36;2.80;99.90
21759;DHT22;11041;50.854;20.580;2022-12-07T14:19:20;2.70;99.90
21759;DHT22;11041;50.854;20.580;2022-12-07T14:22:26;2.70;99.90
21759;DHT22;11041;50.854;20.580;2022-12-07T14:25:09;2.70;99.90
21759;DHT22;11041;50.854;20.580;2022-12-07T14:27:52;2.70;99.90
21759;DHT22;11041;50.854;20.580;2022-12-07T14:30:32;2.70;99.90
21759;DHT22;11041;50.854;20.580;2022-12-07T14:33:02;2.70;99.90
21759;DHT22;11041;50.854;20.580;2022-12-07T14:35:31;2.70;99.90
21759;DHT22;11041;50.854;20.580;2022-12-07T14:37:58;2.70;99.90
21759;DHT22;11041;50.854;20.580;2022-12-07T14:40:27;2.70;99.90
21759;DHT22;11041;50.854;20.580;2022-12-07T14:43:09;2.80;99.90
21759;DHT22;11041;50.854;20.580;2022-12-07T14:45:40;2.80;99.90
21759;DHT22;11041;50.854;20.580;2022-12-07T14:48:11;2.80;99.90
21759;DHT22;11041;50.854;20.580;2022-12-07T14:50:49;2.70;99.90
21759;DHT22;11041;50.854;20.580;2022-12-07T14:53:23;2.70;99.90
21759;DHT22;11041;50.854;20.580;2022-12-07T14:55:57;2.70;99.90
21759;DHT22;11041;50.854;20.580;2022-12-07T14:58:23;2.70;99.90
21759;DHT22;11041;50.854;20.580;2022-12-07T15:00:50;2.80;99.90
21759;DHT22;11041;50.854;20.580;2022-12-07T15:03:17;2.80;99.90
21759;DHT22;11041;50.854;20.580;2022-12-07T15:05:44;2.70;99.90
21759;DHT22;11041;50.854;20.580;2022-12-07T15:08:12;2.70;99.90
21759;DHT22;11041;50.854;20.580;2022-12-07T15:10:39;2.70;99.90
21759;DHT22;11041;50.854;20.580;2022-12-07T15:13:07;2.80;99.90
21759;DHT22;11041;50.854;20.580;2022-12-07T15:15:54;2.80;99.90
21759;DHT22;11041;50.854;20.580;2022-12-07T15:18:22;2.80;99.90
21759;DHT22;11041;50.854;20.580;2022-12-07T15:20:50;2.70;99.90
21759;DHT22;11041;50.854;20.580;2022-12-07T15:23:18;2.70;99.90
21759;DHT22;11041;50.854;20.580;2022-12-07T15:25:46;2.70;99.90
21759;DHT22;11041;50.854;20.580;2022-12-07T15:28:14;2.70;99.90
21759;DHT22;11041;50.854;20.580;2022-12-07T15:30:43;2.80;99.90
21759;DHT22;11041;50.854;20.580;2022-12-07T15:33:12;2.70;99.90
21759;DHT22;11041;50.854;20.580;2022-12-07T15:35:43;2.70;99.90
21759;DHT22;11041;50.854;20.580;2022-12-07T15:38:11;2.70;99.90
21759;DHT22;11041;50.854;20.580;2022-12-07T15:40:38;2.80;99.90
21759;DHT22;11041;50.854;20.580;2022-12-07T15:43:07;2.80;99.90
21759;DHT22;11041;50.854;20.580;2022-12-07T15:45:55;2.80;99.90
21759;DHT22;11041;50.854;20.580;2022-12-07T15:48:21;2.80;99.90
21759;DHT22;11041;50.854;20.580;2022-12-07T15:50:48;2.80;99.90
21759;DHT22;11041;50.854;20.580;2022-12-07T15:53:15;2.80;99.90
21759;DHT22;11041;50.854;20.580;2022-12-07T15:55:41;2.80;99.90
21759;DHT22;11041;50.854;20.580;2022-12-07T15:58:08;2.80;99.90
21759;DHT22;11041;50.854;20.580;2022-12-07T16:00:34;2.80;99.90
21759;DHT22;11041;50.854;20.580;2022-12-07T16:03:01;2.80;99.90
21759;DHT22;11041;50.854;20.580;2022-12-07T16:05:28;2.80;99.90
21759;DHT22;11041;50.854;20.580;2022-12-07T16:07:54;2.90;99.90
21759;DHT22;11041;50.854;20.580;2022-12-07T16:10:21;2.90;99.90
21759;DHT22;11041;50.854;20.580;2022-12-07T16:12:47;2.90;99.90
21759;DHT22;11041;50.854;20.580;2022-12-07T16:15:13;3.00;99.90
21759;DHT22;11041;50.854;20.580;2022-12-07T16:17:41;3.00;99.90
21759;DHT22;11041;50.854;20.580;2022-12-07T16:20:08;3.00;99.90
21759;DHT22;11041;50.854;20.580;2022-12-07T16:22:35;3.00;99.90
21759;DHT22;11041;50.854;20.580;2022-12-07T16:25:02;2.90;99.90
21759;DHT22;11041;50.854;20.580;2022-12-07T16:27:32;3.50;99.90
21759;DHT22;11041;50.854;20.580;2022-12-07T16:29:59;3.00;99.90
21759;DHT22;11041;50.854;20.580;2022-12-07T16:32:25;2.90;99.90
21759;DHT22;11041;50.854;20.580;2022-12-07T16:34:52;2.90;99.90
21759;DHT22;11041;50.854;20.580;2022-12-07T16:37:19;2.90;99.90
21759;DHT22;11041;50.854;20.580;2022-12-07T16:39:45;2.90;99.90
21759;DHT22;11041;50.854;20.580;2022-12-07T16:42:12;2.80;99.90
21759;DHT22;11041;50.854;20.580;2022-12-07T16:44:38;2.80;99.90
21759;DHT22;11041;50.854;20.580;2022-12-07T16:47:05;2.70;99.90
21759;DHT22;11041;50.854;20.580;2022-12-07T16:49:31;2.70;99.90
21759;DHT22;11041;50.854;20.580;2022-12-07T16:51:58;2.60;99.90
21759;DHT22;11041;50.854;20.580;2022-12-07T16:54:24;2.60;99.90
21759;DHT22;11041;50.854;20.580;2022-12-07T16:56:53;2.50;99.90
21759;DHT22;11041;50.854;20.580;2022-12-07T16:59:20;2.50;99.90
21759;DHT22;11041;50.854;20.580;2022-12-07T17:01:47;2.40;99.90
21759;DHT22;11041;50.854;20.580;2022-12-07T17:04:13;2.50;99.90
21759;DHT22;11041;50.854;20.580;2022-12-07T17:06:40;2.40;99.90
21759;DHT22;11041;50.854;20.580;2022-12-07T17:09:06;2.50;99.90
21759;DHT22;11041;50.854;20.580;2022-12-07T17:11:36;2.40;99.90
21759;DHT22;11041;50.854;20.580;2022-12-07T17:14:02;2.30;99.90
21759;DHT22;11041;50.854;20.580;2022-12-07T17:16:54;2.40;99.90
21759;DHT22;11041;50.854;20.580;2022-12-07T17:19:42;2.50;99.90
21759;DHT22;11041;50.854;20.580;2022-12-07T17:22:16;2.60;99.90
21759;DHT22;11041;50.854;20.580;2022-12-07T17:24:53;2.60;99.90
21759;DHT22;11041;50.854;20.580;2022-12-07T17:27:27;2.50;99.90
21759;DHT22;11041;50.854;20.580;2022-12-07T17:29:55;2.50;99.90
21759;DHT22;11041;50.854;20.580;2022-12-07T17:32:22;2.60;99.90
21759;DHT22;11041;50.854;20.580;2022-12-07T17:34:49;2.50;99.90
21759;DHT22;11041;50.854;20.580;2022-12-07T17:37:22;2.50;99.90
21759;DHT22;11041;50.854;20.580;2022-12-07T17:39:49;2.50;99.90
21759;DHT22;11041;50.854;20.580;2022-12-07T17:42:15;2.50;99.90
21759;DHT22;11041;50.854;20.580;2022-12-07T17:45:01;2.40;99.90
21759;DHT22;11041;50.854;20.580;2022-12-07T17:47:39;2.40;99.90
21759;DHT22;11041;50.854;20.580;2022-12-07T17:50:06;2.30;99.90
21759;DHT22;11041;50.854;20.580;2022-12-07T17:52:37;2.30;99.90
21759;DHT22;11041;50.854;20.580;2022-12-07T17:55:25;2.40;99.90
21759;DHT22;11041;50.854;20.580;2022-12-07T17:57:51;2.40;99.90
21759;DHT22;11041;50.854;20.580;2022-12-07T18:00:18;2.40;99.90
21759;DHT22;11041;50.854;20.580;2022-12-07T18:02:45;2.40;99.90
21759;DHT22;11041;50.854;20.580;2022-12-07T18:05:11;2.30;99.90
21759;DHT22;11041;50.854;20.580;2022-12-07T18:07:38;2.40;99.90